Have a Safe July 4th! 

Flight Track Log - Related Links

Times and Time Zones

All times are in EDT time to prevent confusion due to time zone crossing. See the N75NL flight status page for this flight to view local times or setup timezone preferences in your user account.

Time Position Orientation Groundspeed Altitude Reporting Facility
EDT Latitude Longitude Course Direction KTS MPH feet Rate Location/Type
Sat 10:35:37 AM 38.9833 -90.7333 18° North 121 139 5,600  Level Gateway (St. Louis) TRACON
Sat 10:36:37 AM 39.0167 -90.7333 360° North 121 139 6,100 452 Climbing Gateway (St. Louis) TRACON
Sat 10:37:10 AM 39.0239 -90.7267 36° Northeast 120 138 6,300 511 Climbing Kansas City Center
Sat 10:38:11 AM 39.0564 -90.7175 12° North 120 138 6,900 488 Climbing Kansas City Center
Sat 10:39:13 AM 39.0917 -90.7094 10° North 123 142 7,300 344 Climbing Kansas City Center
Sat 10:40:13 AM 39.1267 -90.7039 North 126 145 7,600 145 Climbing Kansas City Center
Sat 10:41:00 AM 38.8820 -90.5602 18° North  Level Estimated
Sat 10:41:17 AM 39.1658 -90.6964 North 132 152 7,600  Level Kansas City Center
Sat 10:42:17 AM 39.2147 -90.6786 16° North 143 165 7,600  Level Kansas City Center
Sat 10:43:18 AM 39.2536 -90.6544 26° Northeast 148 170 7,600  Level Kansas City Center
Sat 10:44:21 AM 39.2928 -90.6319 24° Northeast 152 175 7,600  Level Kansas City Center
Sat 10:45:22 AM 39.3306 -90.6100 24° Northeast 151 174 7,600  Level Kansas City Center
Sat 10:46:24 AM 39.3692 -90.5889 23° Northeast 151 174 7,600  Level Kansas City Center
Sat 10:47:27 AM 39.4089 -90.5667 23° Northeast 152 175 7,600  Level Kansas City Center
Sat 10:48:28 AM 39.4492 -90.5478 20° North 154 177 7,600  Level Kansas City Center
Sat 10:49:30 AM 39.4969 -90.5256 20° North 153 176 7,600  Level Kansas City Center
Sat 10:50:32 AM 39.5375 -90.5092 17° North 153 176 7,600  Level Kansas City Center
Sat 10:51:33 AM 39.5778 -90.4903 20° North 153 176 7,600  Level Kansas City Center
Sat 10:52:34 AM 39.6183 -90.4733 18° North 155 178 7,600  Level Kansas City Center
Sat 10:53:37 AM 39.6589 -90.4547 19° North 155 178 7,600  Level Kansas City Center
Sat 10:54:38 AM 39.7000 -90.4367 19° North 156 180 7,600  Level Kansas City Center
Sat 10:55:41 AM 39.7408 -90.4158 21° North 156 180 7,600  Level Kansas City Center
Sat 10:56:42 AM 39.7825 -90.3961 20° North 159 183 7,600  Level Kansas City Center
Sat 10:57:45 AM 39.8308 -90.3728 20° North 156 180 7,600  Level Kansas City Center
Sat 10:58:45 AM 39.8722 -90.3544 19° North 157 181 7,600  Level Kansas City Center
Sat 10:59:49 AM 39.9131 -90.3367 18° North 156 180 7,600  Level Kansas City Center
Sat 11:00:50 AM 39.9544 -90.3172 20° North 157 181 7,600  Level Kansas City Center
Sat 11:01:50 AM 39.9953 -90.2972 21° North 157 181 7,600  Level Kansas City Center
Sat 11:02:53 AM 40.0364 -90.2772 20° North 158 182 7,600  Level Kansas City Center
Sat 11:03:54 AM 40.0858 -90.2531 21° North 158 182 7,600  Level Kansas City Center
Sat 11:04:58 AM 40.1258 -90.2350 19° North 155 178 7,600  Level Kansas City Center
Sat 11:05:51 AM 40.1583 -90.2181 22° Northeast 157 181 7,600  Level Chicago Center
Sat 11:06:53 AM 40.1978 -90.1981 21° North 153 176 7,600  Level Chicago Center
Sat 11:07:55 AM 40.2472 -90.1742 20° North 159 183 7,600  Level Chicago Center
Sat 11:08:56 AM 40.2872 -90.1542 21° North 155 178 7,600  Level Chicago Center
Sat 11:09:58 AM 40.3289 -90.1344 20° North 158 182 7,600  Level Chicago Center
Sat 11:11:00 AM 40.3694 -90.1158 19° North 155 178 7,600  Level Chicago Center
Sat 11:12:02 AM 40.4111 -90.0939 22° Northeast 159 183 7,600  Level Chicago Center
Sat 11:13:04 AM 40.4522 -90.0747 20° North 157 181 7,600  Level Chicago Center
Sat 11:14:05 AM 40.4936 -90.0561 19° North 157 181 7,600  Level Chicago Center
Sat 11:15:07 AM 40.5428 -90.0328 20° North 156 180 7,600  Level Chicago Center
Sat 11:16:09 AM 40.5839 -90.0131 20° North 157 181 7,600  Level Chicago Center
Sat 11:17:11 AM 40.6250 -89.9936 20° North 157 181 7,600  Level Chicago Center
Sat 11:18:12 AM 40.6650 -89.9733 21° North 154 177 7,600  Level Chicago Center
Sat 11:19:14 AM 40.7061 -89.9536 20° North 155 178 7,600  Level Chicago Center
Sat 11:20:16 AM 40.7475 -89.9331 21° North 156 180 7,600  Level Chicago Center
Sat 11:21:18 AM 40.7889 -89.9125 21° North 156 180 7,600  Level Chicago Center
Sat 11:22:19 AM 40.8303 -89.8931 20° North 156 180 7,600  Level Chicago Center
Sat 11:23:21 AM 40.8711 -89.8747 19° North 154 177 7,600  Level Chicago Center
Sat 11:24:23 AM 40.9119 -89.8539 21° North 156 180 7,600  Level Chicago Center
Sat 11:25:25 AM 40.9603 -89.8306 20° North 156 180 7,600  Level Chicago Center
Sat 11:26:27 AM 41.0008 -89.8103 21° North 155 178 7,600  Level Chicago Center
Sat 11:27:28 AM 41.0403 -89.7911 20° North 153 176 7,600  Level Chicago Center
Sat 11:28:30 AM 41.0803 -89.7717 20° North 152 175 7,600  Level Chicago Center
Sat 11:29:33 AM 41.1186 -89.7511 22° Northeast 149 171 7,600  Level Chicago Center
Sat 11:30:34 AM 41.1583 -89.7319 20° North 150 173 7,600  Level Chicago Center
Sat 11:31:36 AM 41.1958 -89.7119 22° Northeast 147 169 7,600  Level Chicago Center
Sat 11:32:37 AM 41.2439 -89.6897 19° North 150 173 7,600  Level Chicago Center
Sat 11:33:39 AM 41.2814 -89.6703 21° North 146 168 7,600  Level Chicago Center
Sat 11:34:41 AM 41.3211 -89.6525 19° North 149 171 7,600  Level Chicago Center
Sat 11:35:43 AM 41.3592 -89.6333 21° North 147 169 7,600  Level Chicago Center
Sat 11:36:44 AM 41.3981 -89.6139 21° North 147 169 7,600  Level Chicago Center
Sat 11:37:46 AM 41.4375 -89.5950 20° North 150 173 7,600  Level Chicago Center
Sat 11:38:48 AM 41.4744 -89.5756 22° Northeast 145 167 7,600  Level Chicago Center
Sat 11:39:50 AM 41.5139 -89.5561 20° North 149 171 7,600  Level Chicago Center
Sat 11:40:51 AM 41.5558 -89.5364 19° North 150 173 7,600  Level Chicago Center
Sat 11:41:53 AM 41.5947 -89.5156 22° Northeast 150 173 7,600  Level Chicago Center
Sat 11:42:55 AM 41.6414 -89.4911 21° North 150 173 7,600  Level Chicago Center
Sat 11:43:56 AM 41.6803 -89.4714 21° North 150 173 7,600  Level Chicago Center
Sat 11:44:58 AM 41.7197 -89.4531 19° North 151 174 7,600  Level Chicago Center
Sat 11:46:00 AM 41.7564 -89.4344 21° North 144 166 7,600  Level Chicago Center
Sat 11:47:01 AM 41.7967 -89.4136 21° North 154 177 7,600  Level Chicago Center
Sat 11:48:03 AM 41.8372 -89.3967 17° North 153 176 7,600  Level Chicago Center
Sat 11:49:05 AM 41.8842 -89.3744 19° North 150 173 7,600  Level Chicago Center
Sat 11:50:06 AM 41.9239 -89.3586 17° North 150 173 7,600  Level Chicago Center
Sat 11:51:08 AM 41.9581 -89.3283 33° Northeast 149 171 7,600  Level Chicago Center
Sat 11:52:10 AM 41.9900 -89.2939 39° Northeast 148 170 7,600  Level Chicago Center
Sat 11:53:11 AM 42.0203 -89.2575 42° Northeast 147 169 7,600  Level Chicago Center
Sat 11:54:13 AM 42.0506 -89.2178 44° Northeast 149 171 7,600 48 Level Chicago Center
Sat 11:55:15 AM 42.0858 -89.1739 43° Northeast 154 177 7,700  Climbing Chicago Center
Sat 11:56:17 AM 42.1175 -89.1356 42° Northeast 154 177 7,600 -49 Descending Chicago Center
Sat 11:57:18 AM 42.1497 -89.0978 41° Northeast 154 177 7,600  Level Chicago Center
Sat 11:58:20 AM 42.1878 -89.0528 41° Northeast 157 181 7,600 48 Level Chicago Center
Sat 11:59:22 AM 42.2197 -89.0150 41° Northeast 155 178 7,700  Climbing Chicago Center
Sat 12:00:23 PM 42.2525 -88.9781 40° Northeast 153 176 7,600 -49 Descending Chicago Center
Sat 12:01:25 PM 42.2856 -88.9417 39° Northeast 154 177 7,600  Level Chicago Center
Sat 12:02:27 PM 42.3194 -88.9050 39° Northeast 156 180 7,600 48 Level Chicago Center
Sat 12:03:29 PM 42.3517 -88.8714 38° Northeast 149 171 7,700 49 Climbing Chicago Center
Sat 12:04:30 PM 42.3853 -88.8328 40° Northeast 156 180 7,700 -49 Level Chicago Center
Sat 12:05:32 PM 42.4228 -88.7878 42° Northeast 155 178 7,600 -48 Descending Chicago Center
Sat 12:06:34 PM 42.4558 -88.7517 39° Northeast 153 176 7,600 48 Level Chicago Center
Sat 12:07:36 PM 42.4869 -88.7153 41° Northeast 149 171 7,700 48 Climbing Chicago Center
Sat 12:08:38 PM 42.5206 -88.6775 40° Northeast 153 176 7,700  Level Chicago Center
Sat 12:09:39 PM 42.5525 -88.6389 42° Northeast 154 177 7,700 -49 Level Chicago Center
Sat 12:10:41 PM 42.5856 -88.6019 39° Northeast 153 176 7,600  Descending Chicago Center
Sat 12:11:43 PM 42.6239 -88.5575 40° Northeast 155 178 7,700 48 Climbing Chicago Center
Sat 12:12:45 PM 42.6564 -88.5208 40° Northeast 153 176 7,700  Level Chicago Center
Sat 12:13:47 PM 42.6883 -88.4819 42° Northeast 154 177 7,700  Level Chicago Center
Sat 12:14:49 PM 42.7203 -88.4431 42° Northeast 154 177 7,700  Level Chicago Center
Sat 12:15:51 PM 42.7533 -88.4064 39° Northeast 154 177 7,700 -49 Level Chicago Center
Sat 12:16:52 PM 42.7858 -88.3692 40° Northeast 154 177 7,600  Descending Chicago Center
Sat 12:17:54 PM 42.8244 -88.3261 39° Northeast 153 176 7,700  Climbing Chicago Center
Sat 12:18:56 PM 42.8611 -88.2933 33° Northeast 157 181 7,600  Descending Chicago Center
Sat 12:19:58 PM 42.8975 -88.2642 30° Northeast 154 177 7,700 48 Climbing Chicago Center
Sat 12:21:00 PM 42.9336 -88.2339 32° Northeast 153 176 7,700  Level Chicago Center
Sat 12:22:02 PM 42.9694 -88.2042 31° Northeast 152 175 7,700  Level Chicago Center
Sat 12:23:04 PM 43.0108 -88.1694 32° Northeast 151 174 7,700  Level Chicago Center
Sat 12:24:06 PM 43.0467 -88.1367 34° Northeast 154 177 7,700  Level Chicago Center
Sat 12:25:08 PM 43.0822 -88.1061 32° Northeast 151 174 7,700  Level Chicago Center
Sat 12:26:10 PM 43.1181 -88.0739 33° Northeast 154 177 7,700  Level Chicago Center
Sat 12:27:11 PM 43.1531 -88.0417 34° Northeast 153 176 7,700  Level Chicago Center
Sat 12:28:13 PM 43.1944 -88.0050 33° Northeast 152 175 7,700  Level Chicago Center
Sat 12:29:15 PM 43.2297 -87.9750 32° Northeast 150 173 7,700  Level Chicago Center
Sat 12:30:17 PM 43.2639 -87.9444 33° Northeast 147 169 7,700  Level Chicago Center
Sat 12:31:19 PM 43.2992 -87.9136 32° Northeast 149 171 7,700  Level Chicago Center
Sat 12:32:21 PM 43.3358 -87.8853 29° Northeast 151 174 7,700  Level Chicago Center
Sat 12:33:23 PM 43.3706 -87.8556 32° Northeast 148 170 7,700  Level Chicago Center
Sat 12:34:25 PM 43.4142 -87.8264 26° Northeast 149 171 7,700  Level Chicago Center
Sat 12:35:27 PM 43.4525 -87.8036 23° Northeast 149 171 7,700  Level Chicago Center
Sat 12:36:29 PM 43.4906 -87.7828 22° Northeast 149 171 7,700  Level Chicago Center
Sat 12:37:31 PM 43.5294 -87.7628 20° North 148 170 7,700  Level Chicago Center
Sat 12:38:33 PM 43.5692 -87.7436 19° North 150 173 7,700  Level Chicago Center
Sat 12:39:35 PM 43.6144 -87.7242 17° North 147 169 7,700  Level Chicago Center
Sat 12:40:37 PM 43.6547 -87.7106 14° North 148 170 7,700  Level Chicago Center
Sat 12:41:39 PM 43.6950 -87.6947 16° North 149 171 7,700  Level Chicago Center
Sat 12:42:41 PM 43.7347 -87.6794 16° North 149 171 7,700  Level Chicago Center
Sat 12:43:43 PM 43.7756 -87.6686 11° North 149 171 7,700  Level Chicago Center
Sat 12:44:45 PM 43.8228 -87.6561 11° North 149 171 7,700  Level Chicago Center
Sat 12:45:47 PM 43.8622 -87.6444 12° North 146 168 7,700  Level Chicago Center
Sat 12:46:49 PM 43.9031 -87.6356 North 148 170 7,700  Level Chicago Center
Sat 12:47:51 PM 43.9425 -87.6264 North 145 167 7,700  Level Chicago Center
Sat 12:48:53 PM 43.9831 -87.6167 10° North 146 168 7,700  Level Chicago Center
Sat 12:49:55 PM 44.0233 -87.6067 10° North 146 168 7,700  Level Chicago Center
Sat 12:50:57 PM 44.0689 -87.5931 12° North 144 166 7,700  Level Chicago Center
Sat 12:51:58 PM 44.1078 -87.5728 21° North 148 170 7,700  Level Chicago Center
Sat 12:53:00 PM 44.1394 -87.5381 38° Northeast 147 169 7,700  Level Chicago Center
Sat 12:54:02 PM 44.1647 -87.4908 53° Northeast 150 173 7,700  Level Chicago Center
Sat 12:55:04 PM 44.1914 -87.4475 49° Northeast 147 169 7,700  Level Chicago Center
Sat 12:57:00 PM 44.2447 -87.3915 37° Northeast  Level FlightAware Approximate
Sat 01:04:00 PM 44.4320 -87.0591 56° Northeast  Level FlightAware Approximate
Sat 01:05:00 PM 44.4559 -87.0090 56° Northeast  Level FlightAware Approximate
Sat 01:06:00 PM 44.4799 -86.9589 56° Northeast  Level FlightAware Approximate
Sat 01:07:00 PM 44.5039 -86.9089 55° Northeast  Level FlightAware Approximate
Sat 01:08:00 PM 44.5286 -86.8596 55° Northeast  Level FlightAware Approximate
Sat 01:09:00 PM 44.5534 -86.8102 55° Northeast  Level FlightAware Approximate
Sat 01:10:00 PM 44.5781 -86.7607 55° Northeast  Level FlightAware Approximate
Sat 01:11:00 PM 44.6028 -86.7112 55° Northeast  Level FlightAware Approximate
Sat 01:12:00 PM 44.6274 -86.6617 55° Northeast  Level FlightAware Approximate
Sat 01:13:00 PM 44.6521 -86.6122 55° Northeast  Level FlightAware Approximate
Sat 01:14:00 PM 44.6767 -86.5625 55° Northeast  Level FlightAware Approximate
Sat 01:15:00 PM 44.7013 -86.5129 55° Northeast  Level FlightAware Approximate
Sat 01:16:00 PM 44.7259 -86.4632 55° Northeast  Level FlightAware Approximate
Sat 01:17:00 PM 44.7505 -86.4135 55° Northeast  Level FlightAware Approximate
Sat 01:18:00 PM 44.7750 -86.3637 55° Northeast  Level FlightAware Approximate
Sat 01:19:00 PM 44.7995 -86.3139 55° Northeast  Level FlightAware Approximate
Sat 01:20:00 PM 44.8240 -86.2640 55° Northeast  Level FlightAware Approximate
Sat 01:21:00 PM 44.8485 -86.2141 55° Northeast  Level FlightAware Approximate
Sat 01:22:00 PM 44.8730 -86.1642 55° Northeast  Level FlightAware Approximate
Sat 01:23:00 PM 44.8974 -86.1142 55° Northeast  Level FlightAware Approximate
Sat 01:24:00 PM 44.9218 -86.0642 55° Northeast  Level FlightAware Approximate
Sat 01:25:00 PM 44.9462 -86.0141 55° Northeast  Level FlightAware Approximate
Sat 01:26:00 PM 44.9706 -85.9640 55° Northeast  Level FlightAware Approximate
Sat 01:27:00 PM 44.9949 -85.9138 56° Northeast  Level FlightAware Approximate
Sat 01:28:00 PM 45.0192 -85.8636 56° Northeast  Level FlightAware Approximate
Sat 01:29:00 PM 45.0435 -85.8134 56° Northeast  Level FlightAware Approximate
Sat 01:30:00 PM 45.0656 -85.7611 60° Northeast  Level FlightAware Approximate
Sat 01:31:00 PM 45.0868 -85.7081 60° Northeast  Level FlightAware Approximate
Sat 01:32:00 PM 45.1080 -85.6551 60° Northeast  Level FlightAware Approximate
Sat 01:33:00 PM 45.1314 -85.6040 55° Northeast  Level FlightAware Approximate
Sat 01:34:00 PM 45.1562 -85.5542 55° Northeast  Level FlightAware Approximate
Sat 01:35:00 PM 45.1819 -85.5052 53° Northeast  Level FlightAware Approximate
Sat 01:36:00 PM 45.2080 -85.4567 53° Northeast  Level FlightAware Approximate
Sat 01:37:00 PM 45.2342 -85.4082 53° Northeast  Level FlightAware Approximate
Sat 01:38:00 PM 45.2603 -85.3596 53° Northeast  Level FlightAware Approximate
Sat 01:39:00 PM 45.2855 -85.3102 65° Northeast  Level FlightAware Approximate
Sat 01:40:00 PM 45.3000 -85.2667 65° Northeast  Level FlightAware Approximate
Sat 01:41:00 PM 45.3048 -85.2753 65° Northeast  Level Estimated
Sat 01:42:00 PM 45.3048 -85.2753 65° Northeast  Level Estimated
Sat 01:43:00 PM 45.3048 -85.2753 65° Northeast  Level Estimated
Sat 01:44:00 PM 45.3048 -85.2753 65° Northeast  Level Estimated
Sat 01:45:00 PM 45.3048 -85.2753 65° Northeast  Level Estimated
Sat 01:46:00 PM 45.3048 -85.2753 65° Northeast  Level Estimated
Sat 01:47:00 PM 45.3048 -85.2753 65° Northeast  Level Estimated
Sat 01:48:00 PM 45.3048 -85.2753 65° Northeast  Level Estimated
Sat 01:49:00 PM 45.3048 -85.2753 65° Northeast  Level Estimated
Sat 01:50:00 PM 45.3048 -85.2753 65° Northeast  Level Estimated
Sat 01:51:00 PM 45.3048 -85.2753 65° Northeast  Level Estimated
Sat 01:52:00 PM 45.3048 -85.2753 65° Northeast  Level Estimated
Sat 01:53:00 PM 45.3048 -85.2753 65° Northeast  Level Estimated
Sat 01:54:00 PM 45.3048 -85.2753 65° Northeast  Level Estimated
Sat 01:55:00 PM 45.3048 -85.2753 65° Northeast  Level Estimated
Sat 01:56:00 PM 45.3048 -85.2753 65° Northeast  Level Estimated
Sat 01:57:00 PM 45.3048 -85.2753 65° Northeast  Level Estimated
Sat 01:58:00 PM 45.3048 -85.2753 65° Northeast  Level Estimated
Sat 01:59:00 PM 45.3048 -85.2753 65° Northeast  Level Estimated
Sat 02:00:00 PM 45.3048 -85.2753 65° Northeast  Level Estimated

Login

Don't have an account? Register now (free) for customized features, flight alerts, and more!